sensor_id;sensor_type;location;lat;lon;timestamp;pressure;altitude;pressure_sealevel;temperature;humidity
75401;BME280;63974;47.538;18.972;2023-08-06T00:00:30;98936.31;;;18.72;100.00
75401;BME280;63974;47.538;18.972;2023-08-06T00:03:33;98931.03;;;18.67;100.00
75401;BME280;63974;47.538;18.972;2023-08-06T00:06:36;98940.50;;;18.63;100.00
75401;BME280;63974;47.538;18.972;2023-08-06T00:09:39;98942.38;;;18.67;100.00
75401;BME280;63974;47.538;18.972;2023-08-06T00:12:42;98944.22;;;18.72;100.00
75401;BME280;63974;47.538;18.972;2023-08-06T00:15:45;98941.13;;;18.80;100.00
75401;BME280;63974;47.538;18.972;2023-08-06T00:18:48;98930.59;;;18.75;100.00
75401;BME280;63974;47.538;18.972;2023-08-06T00:21:50;98928.19;;;18.68;100.00
75401;BME280;63974;47.538;18.972;2023-08-06T00:24:54;98935.25;;;18.68;100.00
75401;BME280;63974;47.538;18.972;2023-08-06T00:27:59;98932.09;;;18.66;100.00
75401;BME280;63974;47.538;18.972;2023-08-06T00:31:02;98928.94;;;18.69;100.00
75401;BME280;63974;47.538;18.972;2023-08-06T00:34:05;98922.41;;;18.71;100.00
75401;BME280;63974;47.538;18.972;2023-08-06T00:37:08;98925.03;;;18.71;100.00
75401;BME280;63974;47.538;18.972;2023-08-06T00:40:11;98931.03;;;18.62;100.00
75401;BME280;63974;47.538;18.972;2023-08-06T00:43:14;98932.63;;;18.68;100.00
75401;BME280;63974;47.538;18.972;2023-08-06T00:46:16;98928.94;;;18.64;100.00
75401;BME280;63974;47.538;18.972;2023-08-06T00:49:19;98926.59;;;18.67;100.00
75401;BME280;63974;47.538;18.972;2023-08-06T00:52:23;98924.44;;;18.64;100.00
75401;BME280;63974;47.538;18.972;2023-08-06T00:55:25;98931.03;;;18.67;100.00
75401;BME280;63974;47.538;18.972;2023-08-06T00:58:29;98937.88;;;18.63;100.00
75401;BME280;63974;47.538;18.972;2023-08-06T01:01:32;98938.94;;;18.72;100.00
75401;BME280;63974;47.538;18.972;2023-08-06T01:04:35;98943.22;;;18.78;100.00
75401;BME280;63974;47.538;18.972;2023-08-06T01:07:51;98941.38;;;18.78;100.00
75401;BME280;63974;47.538;18.972;2023-08-06T01:17:24;98944.50;;;18.75;100.00
75401;BME280;63974;47.538;18.972;2023-08-06T01:20:30;98942.63;;;18.71;100.00
75401;BME280;63974;47.538;18.972;2023-08-06T01:23:33;98949.53;;;18.77;100.00
75401;BME280;63974;47.538;18.972;2023-08-06T01:26:45;98962.69;;;18.82;100.00
75401;BME280;63974;47.538;18.972;2023-08-06T01:30:01;98958.31;;;18.92;100.00
75401;BME280;63974;47.538;18.972;2023-08-06T01:33:05;98945.34;;;18.81;100.00
75401;BME280;63974;47.538;18.972;2023-08-06T01:36:10;98945.34;;;18.81;100.00
75401;BME280;63974;47.538;18.972;2023-08-06T01:39:13;98932.38;;;18.69;100.00
75401;BME280;63974;47.538;18.972;2023-08-06T01:42:16;98947.13;;;18.75;100.00
75401;BME280;63974;47.538;18.972;2023-08-06T01:45:19;98955.53;;;18.72;99.98
75401;BME280;63974;47.538;18.972;2023-08-06T01:48:22;98936.72;;;18.49;99.79
75401;BME280;63974;47.538;18.972;2023-08-06T01:51:25;98945.91;;;18.51;99.79
75401;BME280;63974;47.538;18.972;2023-08-06T01:54:28;98942.78;;;18.54;99.60
75401;BME280;63974;47.538;18.972;2023-08-06T01:57:31;98942.00;;;18.54;99.83
75401;BME280;63974;47.538;18.972;2023-08-06T02:00:33;98933.59;;;18.57;99.14
75401;BME280;63974;47.538;18.972;2023-08-06T02:03:36;98938.03;;;18.51;99.39
75401;BME280;63974;47.538;18.972;2023-08-06T02:06:39;98935.91;;;18.48;99.05
75401;BME280;63974;47.538;18.972;2023-08-06T02:09:42;98917.44;;;18.38;99.21
75401;BME280;63974;47.538;18.972;2023-08-06T02:12:45;98917.69;;;18.37;99.33
75401;BME280;63974;47.538;18.972;2023-08-06T02:15:47;98909.75;;;18.32;99.91
75401;BME280;63974;47.538;18.972;2023-08-06T02:18:51;98919.13;;;18.23;99.94
75401;BME280;63974;47.538;18.972;2023-08-06T02:21:54;98911.34;;;18.33;100.00
75401;BME280;63974;47.538;18.972;2023-08-06T02:24:57;98903.56;;;18.16;100.00
75401;BME280;63974;47.538;18.972;2023-08-06T02:28:00;98925.19;;;18.23;100.00
75401;BME280;63974;47.538;18.972;2023-08-06T02:31:02;98910.13;;;18.14;100.00
75401;BME280;63974;47.538;18.972;2023-08-06T02:34:05;98907.97;;;18.11;100.00
75401;BME280;63974;47.538;18.972;2023-08-06T02:37:08;98917.16;;;18.08;100.00
75401;BME280;63974;47.538;18.972;2023-08-06T02:40:11;98913.75;;;18.08;100.00
75401;BME280;63974;47.538;18.972;2023-08-06T02:43:14;98917.41;;;18.07;100.00
75401;BME280;63974;47.538;18.972;2023-08-06T02:46:17;98917.00;;;17.94;100.00
75401;BME280;63974;47.538;18.972;2023-08-06T02:49:19;98914.94;;;17.96;100.00
75401;BME280;63974;47.538;18.972;2023-08-06T02:52:22;98912.38;;;18.01;100.00
75401;BME280;63974;47.538;18.972;2023-08-06T02:55:25;98911.09;;;18.03;100.00
75401;BME280;63974;47.538;18.972;2023-08-06T02:58:28;98908.13;;;17.95;100.00
75401;BME280;63974;47.538;18.972;2023-08-06T03:01:40;98904.00;;;17.77;100.00
75401;BME280;63974;47.538;18.972;2023-08-06T03:04:51;98908.25;;;17.57;100.00
75401;BME280;63974;47.538;18.972;2023-08-06T03:07:57;98892.22;;;17.53;100.00
75401;BME280;63974;47.538;18.972;2023-08-06T03:11:02;98878.72;;;17.45;100.00
75401;BME280;63974;47.538;18.972;2023-08-06T03:14:06;98877.94;;;17.44;100.00
75401;BME280;63974;47.538;18.972;2023-08-06T03:17:09;98872.00;;;17.32;100.00
75401;BME280;63974;47.538;18.972;2023-08-06T03:20:13;98875.91;;;17.30;100.00
75401;BME280;63974;47.538;18.972;2023-08-06T03:23:15;98880.22;;;17.36;100.00
75401;BME280;63974;47.538;18.972;2023-08-06T03:26:18;98871.31;;;17.37;100.00
75401;BME280;63974;47.538;18.972;2023-08-06T03:29:22;98878.03;;;17.33;100.00
75401;BME280;63974;47.538;18.972;2023-08-06T03:32:26;98873.81;;;17.32;100.00
75401;BME280;63974;47.538;18.972;2023-08-06T03:35:30;98883.97;;;17.23;100.00
75401;BME280;63974;47.538;18.972;2023-08-06T03:38:33;98881.84;;;17.20;100.00
75401;BME280;63974;47.538;18.972;2023-08-06T03:41:40;98875.13;;;17.08;99.85
75401;BME280;63974;47.538;18.972;2023-08-06T03:44:43;98887.31;;;17.19;99.17
75401;BME280;63974;47.538;18.972;2023-08-06T03:47:46;98900.75;;;17.22;98.97
75401;BME280;63974;47.538;18.972;2023-08-06T03:50:50;98907.16;;;17.31;98.40
75401;BME280;63974;47.538;18.972;2023-08-06T03:53:53;98908.66;;;17.27;98.63
75401;BME280;63974;47.538;18.972;2023-08-06T03:56:56;98908.09;;;17.42;97.93
75401;BME280;63974;47.538;18.972;2023-08-06T03:59:59;98907.09;;;17.26;98.77
75401;BME280;63974;47.538;18.972;2023-08-06T04:03:04;98895.31;;;17.29;98.79
75401;BME280;63974;47.538;18.972;2023-08-06T04:06:07;98883.78;;;17.30;98.38
75401;BME280;63974;47.538;18.972;2023-08-06T04:09:11;98893.06;;;17.37;98.00
75401;BME280;63974;47.538;18.972;2023-08-06T04:12:14;98899.78;;;17.28;97.55
75401;BME280;63974;47.538;18.972;2023-08-06T04:15:17;98894.78;;;17.27;96.39
75401;BME280;63974;47.538;18.972;2023-08-06T04:18:20;98888.16;;;17.24;96.20
75401;BME280;63974;47.538;18.972;2023-08-06T04:21:23;98894.78;;;17.27;95.37
75401;BME280;63974;47.538;18.972;2023-08-06T04:24:26;98871.34;;;17.20;95.46
75401;BME280;63974;47.538;18.972;2023-08-06T04:27:28;98864.56;;;17.24;95.36
75401;BME280;63974;47.538;18.972;2023-08-06T04:30:31;98864.31;;;17.26;95.14
75401;BME280;63974;47.538;18.972;2023-08-06T04:33:34;98845.88;;;17.21;94.88
75401;BME280;63974;47.538;18.972;2023-08-06T04:36:43;98864.75;;;17.39;94.85
75401;BME280;63974;47.538;18.972;2023-08-06T04:39:46;98860.84;;;17.42;93.96
75401;BME280;63974;47.538;18.972;2023-08-06T04:42:50;98876.41;;;17.48;93.53
75401;BME280;63974;47.538;18.972;2023-08-06T04:45:55;98887.31;;;17.62;92.88
75401;BME280;63974;47.538;18.972;2023-08-06T04:48:58;98885.25;;;17.69;92.64
75401;BME280;63974;47.538;18.972;2023-08-06T04:52:01;98888.47;;;17.71;91.53
75401;BME280;63974;47.538;18.972;2023-08-06T04:55:04;98886.84;;;17.70;91.17
75401;BME280;63974;47.538;18.972;2023-08-06T04:58:09;98897.84;;;17.67;91.14
75401;BME280;63974;47.538;18.972;2023-08-06T05:01:13;98911.28;;;17.70;91.01
75401;BME280;63974;47.538;18.972;2023-08-06T05:04:15;98915.56;;;17.76;90.84
75401;BME280;63974;47.538;18.972;2023-08-06T05:07:18;98910.97;;;17.93;90.13
75401;BME280;63974;47.538;18.972;2023-08-06T05:10:21;98922.22;;;18.15;88.75
75401;BME280;63974;47.538;18.972;2023-08-06T05:13:24;98916.63;;;18.07;89.19
75401;BME280;63974;47.538;18.972;2023-08-06T05:16:28;98918.69;;;18.04;88.15
75401;BME280;63974;47.538;18.972;2023-08-06T05:19:30;98919.38;;;18.21;86.64
75401;BME280;63974;47.538;18.972;2023-08-06T05:22:33;98918.78;;;18.41;86.28
75401;BME280;63974;47.538;18.972;2023-08-06T05:25:37;98920.47;;;18.25;85.30
75401;BME280;63974;47.538;18.972;2023-08-06T05:28:39;98919.59;;;18.15;84.64
75401;BME280;63974;47.538;18.972;2023-08-06T05:31:43;98934.03;;;18.17;84.13
75401;BME280;63974;47.538;18.972;2023-08-06T05:34:46;98928.41;;;18.30;82.97
75401;BME280;63974;47.538;18.972;2023-08-06T05:37:52;98925.84;;;18.40;81.58
75401;BME280;63974;47.538;18.972;2023-08-06T05:40:55;98929.38;;;18.56;79.27
75401;BME280;63974;47.538;18.972;2023-08-06T05:43:58;98928.50;;;18.77;79.01
75401;BME280;63974;47.538;18.972;2023-08-06T05:47:05;98922.03;;;18.99;78.85
75401;BME280;63974;47.538;18.972;2023-08-06T05:50:07;98925.09;;;19.23;77.39
75401;BME280;63974;47.538;18.972;2023-08-06T05:53:11;98932.50;;;19.41;75.35
75401;BME280;63974;47.538;18.972;2023-08-06T05:56:14;98928.81;;;19.37;75.54
75401;BME280;63974;47.538;18.972;2023-08-06T05:59:17;98926.16;;;19.32;75.24
75401;BME280;63974;47.538;18.972;2023-08-06T06:02:20;98920.16;;;19.51;75.89
75401;BME280;63974;47.538;18.972;2023-08-06T06:05:23;98928.19;;;19.20;76.26
75401;BME280;63974;47.538;18.972;2023-08-06T06:08:25;98939.53;;;18.74;78.60
75401;BME280;63974;47.538;18.972;2023-08-06T06:11:28;98935.72;;;18.60;79.91
75401;BME280;63974;47.538;18.972;2023-08-06T06:14:31;98941.25;;;18.58;80.31
75401;BME280;63974;47.538;18.972;2023-08-06T06:17:33;98938.09;;;18.56;80.49
75401;BME280;63974;47.538;18.972;2023-08-06T06:20:36;98934.63;;;18.51;80.29
75401;BME280;63974;47.538;18.972;2023-08-06T06:23:39;98934.66;;;18.61;80.04
75401;BME280;63974;47.538;18.972;2023-08-06T06:26:42;98938.03;;;18.88;79.66
75401;BME280;63974;47.538;18.972;2023-08-06T06:29:45;98931.75;;;19.45;78.64
75401;BME280;63974;47.538;18.972;2023-08-06T06:32:47;98933.84;;;19.43;78.79
75401;BME280;63974;47.538;18.972;2023-08-06T06:35:50;98925.94;;;19.48;77.82
75401;BME280;63974;47.538;18.972;2023-08-06T06:38:53;98936.06;;;19.15;78.99
75401;BME280;63974;47.538;18.972;2023-08-06T06:41:56;98934.09;;;19.37;78.19
75401;BME280;63974;47.538;18.972;2023-08-06T06:45:07;98943.38;;;19.08;79.95
75401;BME280;63974;47.538;18.972;2023-08-06T06:48:10;98943.25;;;18.83;80.32
75401;BME280;63974;47.538;18.972;2023-08-06T06:51:12;98944.88;;;18.89;80.83
75401;BME280;63974;47.538;18.972;2023-08-06T06:54:15;98945.69;;;18.94;80.40
75401;BME280;63974;47.538;18.972;2023-08-06T06:57:18;98952.47;;;18.85;80.22
75401;BME280;63974;47.538;18.972;2023-08-06T07:00:21;98950.91;;;18.89;81.08
75401;BME280;63974;47.538;18.972;2023-08-06T07:03:24;98957.41;;;18.77;81.71
75401;BME280;63974;47.538;18.972;2023-08-06T07:06:27;98974.53;;;18.79;82.96
75401;BME280;63974;47.538;18.972;2023-08-06T07:09:29;98971.47;;;18.92;83.61
75401;BME280;63974;47.538;18.972;2023-08-06T07:12:32;98980.34;;;18.86;84.15
75401;BME280;63974;47.538;18.972;2023-08-06T07:15:35;98987.00;;;18.62;86.33
75401;BME280;63974;47.538;18.972;2023-08-06T07:18:38;98988.47;;;18.43;89.00
75401;BME280;63974;47.538;18.972;2023-08-06T07:21:41;98980.19;;;18.30;90.30
75401;BME280;63974;47.538;18.972;2023-08-06T07:24:43;98993.25;;;18.25;92.11
75401;BME280;63974;47.538;18.972;2023-08-06T07:27:46;98989.19;;;18.70;89.89
75401;BME280;63974;47.538;18.972;2023-08-06T07:30:49;98985.69;;;18.96;88.52
75401;BME280;63974;47.538;18.972;2023-08-06T07:33:52;98981.19;;;19.38;87.75
75401;BME280;63974;47.538;18.972;2023-08-06T07:36:54;98985.69;;;19.43;85.57
75401;BME280;63974;47.538;18.972;2023-08-06T07:39:57;98985.63;;;19.33;85.94
75401;BME280;63974;47.538;18.972;2023-08-06T07:43:00;98980.41;;;18.96;84.51
75401;BME280;63974;47.538;18.972;2023-08-06T07:46:03;98979.97;;;19.14;84.88
75401;BME280;63974;47.538;18.972;2023-08-06T07:49:06;98989.88;;;18.92;86.16
75401;BME280;63974;47.538;18.972;2023-08-06T07:52:09;98986.63;;;18.80;83.34
75401;BME280;63974;47.538;18.972;2023-08-06T07:55:12;98984.69;;;18.66;81.41
75401;BME280;63974;47.538;18.972;2023-08-06T07:58:15;98981.84;;;18.72;81.27
75401;BME280;63974;47.538;18.972;2023-08-06T08:01:18;98990.78;;;18.71;82.46
75401;BME280;63974;47.538;18.972;2023-08-06T08:04:21;98987.56;;;18.64;79.93
75401;BME280;63974;47.538;18.972;2023-08-06T08:07:24;98987.00;;;18.57;79.32
75401;BME280;63974;47.538;18.972;2023-08-06T08:10:27;98994.13;;;19.03;78.11
75401;BME280;63974;47.538;18.972;2023-08-06T08:13:29;98987.44;;;19.27;75.86
75401;BME280;63974;47.538;18.972;2023-08-06T08:16:32;98981.03;;;19.70;74.72
75401;BME280;63974;47.538;18.972;2023-08-06T08:19:35;98980.56;;;19.73;72.58
75401;BME280;63974;47.538;18.972;2023-08-06T08:22:38;98978.16;;;19.71;72.24
75401;BME280;63974;47.538;18.972;2023-08-06T08:25:41;98972.41;;;19.84;71.24
75401;BME280;63974;47.538;18.972;2023-08-06T08:28:44;98969.00;;;19.94;71.30
75401;BME280;63974;47.538;18.972;2023-08-06T08:31:47;98971.97;;;20.07;70.63
75401;BME280;63974;47.538;18.972;2023-08-06T08:34:51;98974.22;;;19.74;71.28
75401;BME280;63974;47.538;18.972;2023-08-06T08:37:54;98968.53;;;20.17;70.75
75401;BME280;63974;47.538;18.972;2023-08-06T08:40:57;98972.78;;;20.42;69.40
75401;BME280;63974;47.538;18.972;2023-08-06T08:44:00;98959.59;;;20.87;67.73
75401;BME280;63974;47.538;18.972;2023-08-06T08:47:06;98966.16;;;21.00;66.42
75401;BME280;63974;47.538;18.972;2023-08-06T08:50:10;98961.19;;;20.58;67.35
75401;BME280;63974;47.538;18.972;2023-08-06T08:53:15;98959.31;;;20.99;67.04
75401;BME280;63974;47.538;18.972;2023-08-06T08:56:19;98960.50;;;21.36;62.76
75401;BME280;63974;47.538;18.972;2023-08-06T08:59:21;98969.50;;;21.25;62.02
75401;BME280;63974;47.538;18.972;2023-08-06T09:02:28;98963.75;;;21.03;63.23
75401;BME280;63974;47.538;18.972;2023-08-06T09:05:33;98965.19;;;21.54;61.46
75401;BME280;63974;47.538;18.972;2023-08-06T09:08:47;98968.94;;;21.38;62.29
75401;BME280;63974;47.538;18.972;2023-08-06T09:11:55;98968.75;;;22.27;59.41
75401;BME280;63974;47.538;18.972;2023-08-06T09:15:02;98974.59;;;22.19;57.75
75401;BME280;63974;47.538;18.972;2023-08-06T09:18:12;98978.91;;;21.66;58.85
75401;BME280;63974;47.538;18.972;2023-08-06T09:21:15;98978.97;;;21.41;60.52
75401;BME280;63974;47.538;18.972;2023-08-06T09:24:20;98981.41;;;21.18;61.47
75401;BME280;63974;47.538;18.972;2023-08-06T09:27:24;98992.00;;;20.83;60.91
75401;BME280;63974;47.538;18.972;2023-08-06T09:30:31;98999.41;;;20.76;60.86
75401;BME280;63974;47.538;18.972;2023-08-06T09:33:36;99000.47;;;20.75;60.86
75401;BME280;63974;47.538;18.972;2023-08-06T09:36:43;99005.75;;;20.60;60.33
75401;BME280;63974;47.538;18.972;2023-08-06T09:39:47;98997.56;;;20.76;60.25
75401;BME280;63974;47.538;18.972;2023-08-06T09:42:50;99005.22;;;20.98;59.99
75401;BME280;63974;47.538;18.972;2023-08-06T09:45:54;99006.53;;;21.05;59.44
75401;BME280;63974;47.538;18.972;2023-08-06T09:48:57;99009.19;;;20.95;59.35
75401;BME280;63974;47.538;18.972;2023-08-06T09:52:00;99003.09;;;20.95;57.50
75401;BME280;63974;47.538;18.972;2023-08-06T09:55:04;99024.16;;;21.35;57.28
75401;BME280;63974;47.538;18.972;2023-08-06T09:58:07;99016.75;;;21.32;57.43
75401;BME280;63974;47.538;18.972;2023-08-06T10:01:10;99008.63;;;21.13;58.21
75401;BME280;63974;47.538;18.972;2023-08-06T10:04:14;99014.19;;;21.07;58.48
75401;BME280;63974;47.538;18.972;2023-08-06T10:07:26;99009.38;;;21.29;57.70
75401;BME280;63974;47.538;18.972;2023-08-06T10:10:30;99004.59;;;21.41;58.09
75401;BME280;63974;47.538;18.972;2023-08-06T10:13:34;99000.16;;;21.21;58.15
75401;BME280;63974;47.538;18.972;2023-08-06T10:16:39;99015.00;;;20.87;59.35
75401;BME280;63974;47.538;18.972;2023-08-06T10:19:42;99014.19;;;20.92;60.73
75401;BME280;63974;47.538;18.972;2023-08-06T10:22:45;99015.00;;;20.57;61.30
75401;BME280;63974;47.538;18.972;2023-08-06T10:25:53;99011.28;;;20.53;62.12
75401;BME280;63974;47.538;18.972;2023-08-06T10:29:00;99014.44;;;20.65;63.37
75401;BME280;63974;47.538;18.972;2023-08-06T10:32:03;99004.94;;;20.79;61.45
75401;BME280;63974;47.538;18.972;2023-08-06T10:36:07;99014.06;;;21.52;61.04
75401;BME280;63974;47.538;18.972;2023-08-06T10:38:52;99001.56;;;22.26;57.97
75401;BME280;63974;47.538;18.972;2023-08-06T10:41:56;99010.28;;;22.26;56.44
75401;BME280;63974;47.538;18.972;2023-08-06T10:45:15;99011.53;;;22.72;56.17
75401;BME280;63974;47.538;18.972;2023-08-06T10:51:36;99005.25;;;22.91;55.70
75401;BME280;63974;47.538;18.972;2023-08-06T10:54:39;99017.34;;;21.92;58.28
75401;BME280;63974;47.538;18.972;2023-08-06T10:57:42;99025.19;;;21.44;58.90
75401;BME280;63974;47.538;18.972;2023-08-06T11:00:45;99022.91;;;20.97;62.10
75401;BME280;63974;47.538;18.972;2023-08-06T11:03:49;99051.09;;;20.42;63.10
75401;BME280;63974;47.538;18.972;2023-08-06T11:06:52;99042.81;;;19.99;66.39
75401;BME280;63974;47.538;18.972;2023-08-06T11:10:06;99038.06;;;20.01;66.94
75401;BME280;63974;47.538;18.972;2023-08-06T11:13:09;99040.25;;;20.24;65.96
75401;BME280;63974;47.538;18.972;2023-08-06T11:16:19;99043.97;;;20.67;64.95
75401;BME280;63974;47.538;18.972;2023-08-06T11:19:22;99044.78;;;20.53;63.47
75401;BME280;63974;47.538;18.972;2023-08-06T11:22:26;99045.84;;;20.82;62.96
75401;BME280;63974;47.538;18.972;2023-08-06T11:25:29;99044.78;;;21.08;61.22
75401;BME280;63974;47.538;18.972;2023-08-06T11:28:32;99048.16;;;21.43;60.04
75401;BME280;63974;47.538;18.972;2023-08-06T11:31:36;99052.84;;;21.71;58.89
75401;BME280;63974;47.538;18.972;2023-08-06T11:34:39;99052.59;;;21.73;59.37
75401;BME280;63974;47.538;18.972;2023-08-06T11:37:46;99043.56;;;21.84;60.13
75401;BME280;63974;47.538;18.972;2023-08-06T11:40:50;99056.75;;;21.89;60.59
75401;BME280;63974;47.538;18.972;2023-08-06T11:43:53;99056.72;;;21.99;60.89
75401;BME280;63974;47.538;18.972;2023-08-06T11:46:56;99053.94;;;21.65;60.40
75401;BME280;63974;47.538;18.972;2023-08-06T11:49:59;99067.91;;;21.71;59.39
75401;BME280;63974;47.538;18.972;2023-08-06T11:53:02;99070.09;;;21.39;58.61
75401;BME280;63974;47.538;18.972;2023-08-06T11:56:05;99087.28;;;21.11;60.34
75401;BME280;63974;47.538;18.972;2023-08-06T11:59:08;99086.19;;;20.67;61.99
75401;BME280;63974;47.538;18.972;2023-08-06T12:02:11;99104.31;;;20.24;64.31
75401;BME280;63974;47.538;18.972;2023-08-06T12:05:15;99115.59;;;19.63;69.88
75401;BME280;63974;47.538;18.972;2023-08-06T12:08:19;99121.09;;;18.89;78.04
75401;BME280;63974;47.538;18.972;2023-08-06T12:11:23;99135.41;;;18.02;88.75
75401;BME280;63974;47.538;18.972;2023-08-06T12:14:26;99139.72;;;17.54;91.24
75401;BME280;63974;47.538;18.972;2023-08-06T12:17:29;99144.66;;;17.50;88.70
75401;BME280;63974;47.538;18.972;2023-08-06T12:20:32;99141.59;;;17.25;92.37
75401;BME280;63974;47.538;18.972;2023-08-06T12:23:34;99145.31;;;17.41;93.37
75401;BME280;63974;47.538;18.972;2023-08-06T12:26:38;99145.38;;;17.46;93.66
75401;BME280;63974;47.538;18.972;2023-08-06T12:29:45;99155.63;;;17.47;90.14
75401;BME280;63974;47.538;18.972;2023-08-06T12:32:48;99152.00;;;17.70;91.78
75401;BME280;63974;47.538;18.972;2023-08-06T12:35:51;99156.69;;;17.84;91.01
75401;BME280;63974;47.538;18.972;2023-08-06T12:38:57;99153.66;;;17.92;91.33
75401;BME280;63974;47.538;18.972;2023-08-06T12:42:05;99153.38;;;17.94;91.64
75401;BME280;63974;47.538;18.972;2023-08-06T12:45:12;99156.78;;;18.10;91.80
75401;BME280;63974;47.538;18.972;2023-08-06T12:48:14;99167.28;;;18.10;91.85
75401;BME280;63974;47.538;18.972;2023-08-06T12:51:17;99167.31;;;18.32;92.31
75401;BME280;63974;47.538;18.972;2023-08-06T12:54:20;99166.09;;;18.23;92.33
75401;BME280;63974;47.538;18.972;2023-08-06T12:57:23;99179.63;;;18.10;92.16
75401;BME280;63974;47.538;18.972;2023-08-06T13:00:41;99180.88;;;17.86;93.22
75401;BME280;63974;47.538;18.972;2023-08-06T13:03:43;99175.09;;;18.05;94.32
75401;BME280;63974;47.538;18.972;2023-08-06T13:06:46;99182.06;;;18.16;92.67
75401;BME280;63974;47.538;18.972;2023-08-06T13:09:49;99162.75;;;18.06;91.40
75401;BME280;63974;47.538;18.972;2023-08-06T13:12:52;99186.31;;;18.39;91.21
75401;BME280;63974;47.538;18.972;2023-08-06T13:15:55;99186.78;;;18.36;89.77
75401;BME280;63974;47.538;18.972;2023-08-06T13:18:57;99183.28;;;18.73;88.94
75401;BME280;63974;47.538;18.972;2023-08-06T13:22:03;99189.63;;;18.77;87.68
75401;BME280;63974;47.538;18.972;2023-08-06T13:25:07;99185.84;;;18.95;86.94
75401;BME280;63974;47.538;18.972;2023-08-06T13:28:10;99191.78;;;18.80;87.70
75401;BME280;63974;47.538;18.972;2023-08-06T13:31:13;99186.44;;;18.75;86.47
75401;BME280;63974;47.538;18.972;2023-08-06T13:34:16;99209.41;;;19.06;84.27
75401;BME280;63974;47.538;18.972;2023-08-06T13:37:19;99194.09;;;19.03;82.42
75401;BME280;63974;47.538;18.972;2023-08-06T13:40:21;99196.78;;;18.82;82.30
75401;BME280;63974;47.538;18.972;2023-08-06T13:43:24;99211.00;;;18.59;83.74
75401;BME280;63974;47.538;18.972;2023-08-06T13:46:27;99212.06;;;18.37;84.51
75401;BME280;63974;47.538;18.972;2023-08-06T13:49:30;99216.84;;;18.66;84.97
75401;BME280;63974;47.538;18.972;2023-08-06T13:52:32;99211.97;;;18.53;82.34
75401;BME280;63974;47.538;18.972;2023-08-06T13:55:36;99217.38;;;18.42;82.05
75401;BME280;63974;47.538;18.972;2023-08-06T13:58:39;99211.59;;;18.23;81.85
75401;BME280;63974;47.538;18.972;2023-08-06T14:01:42;99214.63;;;18.32;81.76
75401;BME280;63974;47.538;18.972;2023-08-06T14:04:53;99226.44;;;18.51;82.99
75401;BME280;63974;47.538;18.972;2023-08-06T14:07:56;99224.25;;;18.48;82.26
75401;BME280;63974;47.538;18.972;2023-08-06T14:10:59;99232.53;;;18.35;81.66
75401;BME280;63974;47.538;18.972;2023-08-06T14:14:02;99233.97;;;18.26;80.68
75401;BME280;63974;47.538;18.972;2023-08-06T14:17:05;99232.13;;;18.26;81.08
75401;BME280;63974;47.538;18.972;2023-08-06T14:20:09;99235.94;;;18.35;81.97
75401;BME280;63974;47.538;18.972;2023-08-06T14:23:14;99246.38;;;18.30;78.71
75401;BME280;63974;47.538;18.972;2023-08-06T14:26:17;99242.16;;;18.29;80.24
75401;BME280;63974;47.538;18.972;2023-08-06T14:29:20;99247.81;;;18.38;78.84
75401;BME280;63974;47.538;18.972;2023-08-06T14:32:22;99240.63;;;18.50;78.80
75401;BME280;63974;47.538;18.972;2023-08-06T14:35:25;99237.31;;;18.38;75.14
75401;BME280;63974;47.538;18.972;2023-08-06T14:38:28;99242.25;;;18.34;75.12
75401;BME280;63974;47.538;18.972;2023-08-06T14:41:31;99248.00;;;18.31;76.67
75401;BME280;63974;47.538;18.972;2023-08-06T14:44:34;99248.47;;;18.28;75.47
75401;BME280;63974;47.538;18.972;2023-08-06T14:47:37;99255.22;;;18.41;76.33
75401;BME280;63974;47.538;18.972;2023-08-06T14:50:39;99259.66;;;18.40;78.35
75401;BME280;63974;47.538;18.972;2023-08-06T14:53:43;99252.59;;;18.41;76.79
75401;BME280;63974;47.538;18.972;2023-08-06T14:56:46;99254.50;;;18.45;77.44
75401;BME280;63974;47.538;18.972;2023-08-06T14:59:49;99248.78;;;18.32;75.52
75401;BME280;63974;47.538;18.972;2023-08-06T15:02:52;99254.16;;;18.42;76.21
75401;BME280;63974;47.538;18.972;2023-08-06T15:05:55;99259.66;;;18.24;74.25
75401;BME280;63974;47.538;18.972;2023-08-06T15:08:57;99256.75;;;18.20;74.86
75401;BME280;63974;47.538;18.972;2023-08-06T15:12:03;99259.63;;;18.19;75.18
75401;BME280;63974;47.538;18.972;2023-08-06T15:15:07;99263.50;;;18.33;76.48
75401;BME280;63974;47.538;18.972;2023-08-06T15:18:10;99268.34;;;18.41;76.21
75401;BME280;63974;47.538;18.972;2023-08-06T15:21:13;99253.38;;;18.41;75.58
75401;BME280;63974;47.538;18.972;2023-08-06T15:24:16;99258.94;;;18.45;74.70
75401;BME280;63974;47.538;18.972;2023-08-06T15:27:19;99267.25;;;18.37;75.47
75401;BME280;63974;47.538;18.972;2023-08-06T15:30:22;99265.41;;;18.21;77.02
75401;BME280;63974;47.538;18.972;2023-08-06T15:33:25;99258.41;;;18.26;78.25
75401;BME280;63974;47.538;18.972;2023-08-06T15:36:28;99265.81;;;18.29;78.38
75401;BME280;63974;47.538;18.972;2023-08-06T15:39:30;99264.56;;;18.15;78.19
75401;BME280;63974;47.538;18.972;2023-08-06T15:42:34;99272.97;;;18.17;80.53
75401;BME280;63974;47.538;18.972;2023-08-06T15:45:37;99270.78;;;18.09;81.70
75401;BME280;63974;47.538;18.972;2023-08-06T15:48:39;99269.56;;;18.17;82.73
75401;BME280;63974;47.538;18.972;2023-08-06T15:51:42;99266.78;;;18.23;81.96
75401;BME280;63974;47.538;18.972;2023-08-06T15:54:46;99271.88;;;18.30;82.59
75401;BME280;63974;47.538;18.972;2023-08-06T15:57:48;99270.94;;;18.19;82.75
75401;BME280;63974;47.538;18.972;2023-08-06T16:00:51;99285.03;;;18.30;82.54
75401;BME280;63974;47.538;18.972;2023-08-06T16:03:55;99287.00;;;18.23;82.90
75401;BME280;63974;47.538;18.972;2023-08-06T16:06:59;99289.47;;;18.29;82.49